createdAt,value
2022-08-19T00:01:31.149Z,19.00
2022-08-19T00:03:59.667Z,22.07
2022-08-19T00:06:29.921Z,19.23
2022-08-19T00:08:57.190Z,15.37
2022-08-19T00:11:25.463Z,18.10
2022-08-19T00:13:53.490Z,19.90
2022-08-19T00:16:25.259Z,17.03
2022-08-19T00:18:56.166Z,16.37
2022-08-19T00:21:27.571Z,21.47
2022-08-19T00:23:55.628Z,15.50
2022-08-19T00:26:22.306Z,22.87
2022-08-19T00:28:48.894Z,23.20
2022-08-19T00:31:18.210Z,19.60
2022-08-19T00:33:45.106Z,16.63
2022-08-19T00:36:12.356Z,19.00
2022-08-19T00:38:43.797Z,18.77
2022-08-19T00:41:14.152Z,24.00
2022-08-19T00:43:42.076Z,26.17
2022-08-19T00:46:08.812Z,26.50
2022-08-19T00:48:36.370Z,24.40
2022-08-19T00:51:05.046Z,26.90
2022-08-19T00:53:33.498Z,21.47
2022-08-19T00:56:02.325Z,25.43
2022-08-19T00:58:32.690Z,29.00
2022-08-19T01:00:59.481Z,26.07
2022-08-19T01:03:26.086Z,30.13
2022-08-19T01:05:56.639Z,23.97
2022-08-19T01:08:24.495Z,20.80
2022-08-19T01:10:58.506Z,21.93
2022-08-19T01:13:29.568Z,27.97
2022-08-19T01:16:15.921Z,25.23
2022-08-19T01:18:43.461Z,26.63
2022-08-19T01:21:36.029Z,27.27
2022-08-19T01:24:02.808Z,23.87
2022-08-19T01:26:31.296Z,25.37
2022-08-19T01:29:00.805Z,30.93
2022-08-19T01:31:33.203Z,31.47
2022-08-19T01:34:00.967Z,32.07
2022-08-19T01:36:37.201Z,31.30
2022-08-19T01:39:07.861Z,30.90
2022-08-19T01:41:35.192Z,32.60
2022-08-19T01:44:17.670Z,32.53
2022-08-19T01:46:48.212Z,35.37
2022-08-19T01:49:19.354Z,32.10
2022-08-19T01:51:46.431Z,30.77
2022-08-19T01:54:23.394Z,32.30
2022-08-19T01:57:07.685Z,29.40
2022-08-19T01:59:37.460Z,29.80
2022-08-19T02:02:08.442Z,26.53
2022-08-19T02:04:35.995Z,29.50
2022-08-19T02:07:02.678Z,29.00
2022-08-19T02:09:29.588Z,32.97
2022-08-19T02:11:56.647Z,31.60
2022-08-19T02:14:23.326Z,33.80
2022-08-19T02:16:49.960Z,32.40
2022-08-19T02:19:18.771Z,28.13
2022-08-19T02:21:45.526Z,31.23
2022-08-19T02:24:13.211Z,31.83
2022-08-19T02:26:40.200Z,30.47
2022-08-19T02:29:08.591Z,27.90
2022-08-19T02:31:35.298Z,29.37
2022-08-19T02:34:04.488Z,29.10
2022-08-19T02:36:31.333Z,34.53
2022-08-19T02:38:57.980Z,33.80
2022-08-19T02:41:27.671Z,34.80
2022-08-19T02:44:22.884Z,35.50
2022-08-19T02:46:48.160Z,32.53
2022-08-19T02:49:17.338Z,34.10
2022-08-19T02:51:45.961Z,29.70
2022-08-19T02:54:15.958Z,28.60
2022-08-19T02:56:44.489Z,28.80
2022-08-19T02:59:12.901Z,32.17
2022-08-19T03:01:42.246Z,31.83
2022-08-19T03:04:14.128Z,33.93
2022-08-19T03:06:42.925Z,37.80
2022-08-19T03:09:09.849Z,36.20
2022-08-19T03:11:43.805Z,38.70
2022-08-19T03:14:11.277Z,38.37
2022-08-19T03:16:47.233Z,36.10
2022-08-19T03:19:15.353Z,41.70
2022-08-19T03:21:45.478Z,40.43
2022-08-19T03:24:12.764Z,32.80
2022-08-19T03:26:44.053Z,37.60
2022-08-19T03:29:16.323Z,36.00
2022-08-19T03:31:56.868Z,30.63
2022-08-19T03:34:28.629Z,36.17
2022-08-19T03:36:59.626Z,42.33
2022-08-19T03:39:27.463Z,45.40
2022-08-19T03:42:30.089Z,44.87
2022-08-19T03:44:45.895Z,41.40
2022-08-19T03:47:17.134Z,46.50
2022-08-19T03:49:44.117Z,43.40
2022-08-19T03:52:10.850Z,40.97
2022-08-19T03:54:38.961Z,42.17
2022-08-19T03:57:06.517Z,40.30
2022-08-19T03:59:36.308Z,51.87
2022-08-19T04:02:09.995Z,40.00
2022-08-19T04:04:38.530Z,41.57
2022-08-19T04:07:05.633Z,38.03
2022-08-19T04:09:34.892Z,37.67
2022-08-19T04:12:01.554Z,35.33
2022-08-19T04:14:33.383Z,37.53
2022-08-19T04:17:01.776Z,34.03
2022-08-19T04:19:33.256Z,32.07
2022-08-19T04:22:02.109Z,31.63
2022-08-19T04:24:28.889Z,27.33
2022-08-19T04:26:55.507Z,32.03
2022-08-19T04:29:26.225Z,32.37
2022-08-19T04:31:56.558Z,32.60
2022-08-19T04:34:25.250Z,30.30
2022-08-19T04:36:56.253Z,29.10
2022-08-19T04:39:50.176Z,27.20
2022-08-19T04:42:36.472Z,27.10
2022-08-19T04:45:13.881Z,25.37
2022-08-19T04:47:47.998Z,23.00
2022-08-19T04:50:25.848Z,27.23
2022-08-19T04:52:53.488Z,23.43
2022-08-19T04:55:20.329Z,23.47
2022-08-19T04:57:52.184Z,21.67
2022-08-19T05:00:19.186Z,23.27
2022-08-19T05:02:45.895Z,22.00
2022-08-19T05:05:13.494Z,19.57
2022-08-19T05:07:42.076Z,22.13
2022-08-19T05:10:11.993Z,20.17
2022-08-19T05:12:39.115Z,18.13
2022-08-19T05:15:09.615Z,26.87
2022-08-19T05:18:04.165Z,17.10
2022-08-19T05:20:49.518Z,19.13
2022-08-19T05:23:20.543Z,16.60
2022-08-19T05:26:01.272Z,18.77
2022-08-19T05:28:38.872Z,18.40
2022-08-19T05:31:05.681Z,20.87
2022-08-19T05:33:32.311Z,16.67
2022-08-19T05:35:59.695Z,17.40
2022-08-19T05:38:29.759Z,14.13
2022-08-19T05:40:59.771Z,16.50
2022-08-19T05:43:28.882Z,18.40
2022-08-19T05:45:56.143Z,14.63
2022-08-19T05:48:31.231Z,17.90
2022-08-19T05:50:59.615Z,19.10
2022-08-19T05:53:28.904Z,14.87
2022-08-19T05:55:58.554Z,14.53
2022-08-19T05:58:33.906Z,12.60
2022-08-19T06:01:05.430Z,12.00
2022-08-19T06:03:34.314Z,17.60
2022-08-19T06:06:01.119Z,13.93
2022-08-19T06:08:34.220Z,16.10
2022-08-19T06:11:14.286Z,16.90
2022-08-19T06:13:44.933Z,14.63
2022-08-19T06:16:11.626Z,15.03
2022-08-19T06:18:38.291Z,14.83
2022-08-19T06:21:05.455Z,18.80
2022-08-19T06:23:32.149Z,17.70
2022-08-19T06:26:01.527Z,18.00
2022-08-19T06:28:28.435Z,21.13
2022-08-19T06:30:57.994Z,21.00
2022-08-19T06:33:33.996Z,18.17
2022-08-19T06:36:00.791Z,19.73
2022-08-19T06:38:30.346Z,21.37
2022-08-19T06:41:07.397Z,20.23
2022-08-19T06:43:35.158Z,19.40
2022-08-19T06:46:05.011Z,23.77
2022-08-19T06:48:45.071Z,23.77
2022-08-19T06:51:19.336Z,25.83
2022-08-19T06:53:48.267Z,24.50
2022-08-19T06:56:21.992Z,23.00
2022-08-19T06:58:53.492Z,25.37
2022-08-19T07:01:20.896Z,22.50
2022-08-19T07:03:47.872Z,22.40
2022-08-19T07:09:20.517Z,23.87
2022-08-19T07:11:53.464Z,20.90
2022-08-19T07:14:26.402Z,23.87
2022-08-19T07:16:55.863Z,22.80
2022-08-19T07:19:24.631Z,19.60
2022-08-19T07:21:53.827Z,22.37
2022-08-19T07:24:24.776Z,20.90
2022-08-19T07:26:56.302Z,21.30
2022-08-19T07:29:24.102Z,19.73
2022-08-19T07:31:53.143Z,19.20
2022-08-19T07:34:27.627Z,18.27
2022-08-19T07:36:55.542Z,17.20
2022-08-19T07:39:34.204Z,19.43
2022-08-19T07:42:04.259Z,18.70
2022-08-19T07:44:31.091Z,17.50
2022-08-19T07:46:58.629Z,17.27
2022-08-19T07:49:25.782Z,20.73
2022-08-19T07:51:58.646Z,19.00
2022-08-19T07:54:27.061Z,19.10
2022-08-19T07:56:57.726Z,22.13
2022-08-19T07:59:24.944Z,17.33
2022-08-19T08:01:52.184Z,17.93
2022-08-19T08:04:38.576Z,16.70
2022-08-19T08:07:25.366Z,12.33
2022-08-19T08:10:02.869Z,14.60
2022-08-19T08:12:52.614Z,16.07
2022-08-19T08:15:33.231Z,14.17
2022-08-19T08:18:00.007Z,9.77
2022-08-19T08:20:26.705Z,8.83
2022-08-19T08:23:35.028Z,12.33
2022-08-19T08:26:03.127Z,10.03
2022-08-19T08:28:30.159Z,7.90
2022-08-19T08:30:58.601Z,7.90
2022-08-19T08:33:33.492Z,9.33
2022-08-19T08:36:03.810Z,9.40
2022-08-19T08:38:38.996Z,12.90
2022-08-19T08:41:23.286Z,10.93
2022-08-19T08:43:53.154Z,10.40
2022-08-19T08:46:48.928Z,10.43
2022-08-19T08:49:29.389Z,9.80
2022-08-19T08:52:08.695Z,7.90
2022-08-19T08:54:54.679Z,7.73
2022-08-19T08:57:33.746Z,9.00
2022-08-19T09:00:22.019Z,8.23
2022-08-19T09:02:50.961Z,9.97
2022-08-19T09:05:22.610Z,8.13
2022-08-19T09:08:07.382Z,8.23
2022-08-19T09:10:58.984Z,9.23
2022-08-19T09:13:28.050Z,8.67
2022-08-19T09:16:10.473Z,6.50
2022-08-19T09:18:59.987Z,5.17
2022-08-19T09:21:30.327Z,6.80
2022-08-19T09:24:03.693Z,8.30
2022-08-19T09:26:47.637Z,5.87
2022-08-19T09:29:22.442Z,9.23
2022-08-19T09:31:56.892Z,7.47
2022-08-19T09:34:23.550Z,5.37
2022-08-19T09:36:54.476Z,8.97
2022-08-19T09:39:35.763Z,7.03
2022-08-19T09:42:05.851Z,7.47
2022-08-19T09:44:43.576Z,6.83
2022-08-19T09:47:12.460Z,4.73
2022-08-19T09:49:41.909Z,5.20
2022-08-19T09:52:13.636Z,5.60
2022-08-19T09:54:40.375Z,6.80
2022-08-19T09:57:13.638Z,4.63
2022-08-19T09:59:40.959Z,4.50
2022-08-19T10:02:11.161Z,8.00
2022-08-19T10:04:58.960Z,3.80
2022-08-19T10:07:36.553Z,4.40
2022-08-19T10:10:13.185Z,5.57
2022-08-19T10:12:40.322Z,3.40
2022-08-19T10:15:09.970Z,5.40
2022-08-19T10:17:48.037Z,4.00
2022-08-19T10:20:26.609Z,3.70
2022-08-19T10:22:53.506Z,4.00
2022-08-19T10:25:20.304Z,4.43
2022-08-19T10:27:53.020Z,5.10
2022-08-19T10:30:22.979Z,4.27
2022-08-19T10:32:51.809Z,6.63
2022-08-19T10:35:21.920Z,4.83
2022-08-19T10:38:01.970Z,3.83
2022-08-19T10:40:29.777Z,3.67
2022-08-19T10:43:00.041Z,4.23
2022-08-19T10:45:28.122Z,4.53
2022-08-19T10:47:55.142Z,5.10
2022-08-19T10:50:41.545Z,3.63
2022-08-19T10:53:13.503Z,4.27
2022-08-19T10:55:59.276Z,6.90
2022-08-19T10:58:28.361Z,4.07
2022-08-19T11:01:01.325Z,5.70
2022-08-19T11:03:31.615Z,3.50
2022-08-19T11:06:04.470Z,3.30
2022-08-19T11:08:32.154Z,4.30
2022-08-19T11:11:02.138Z,4.23
2022-08-19T11:13:34.427Z,4.03
2022-08-19T11:16:07.330Z,3.40
2022-08-19T11:18:37.225Z,4.93
2022-08-19T11:21:21.083Z,3.17
2022-08-19T11:23:49.836Z,5.73
2022-08-19T11:26:17.354Z,3.30
2022-08-19T11:28:46.811Z,3.60
2022-08-19T11:31:19.871Z,3.47
2022-08-19T11:33:47.770Z,3.50
2022-08-19T11:36:18.425Z,3.87
2022-08-19T11:38:46.114Z,3.60
2022-08-19T11:41:13.065Z,3.60
2022-08-19T11:43:40.918Z,3.23
2022-08-19T11:46:09.547Z,5.67
2022-08-19T11:48:38.010Z,3.50
2022-08-19T11:51:13.145Z,4.00
2022-08-19T11:53:40.411Z,4.50
2022-08-19T11:56:09.086Z,3.10
2022-08-19T11:58:36.347Z,3.60
2022-08-19T12:01:07.123Z,3.30
2022-08-19T12:03:37.127Z,3.50
2022-08-19T12:06:13.672Z,4.80
2022-08-19T12:08:45.246Z,3.40
2022-08-19T12:11:14.799Z,3.97
2022-08-19T12:13:42.574Z,3.43
2022-08-19T12:16:15.951Z,3.33
2022-08-19T12:18:47.366Z,4.40
2022-08-19T12:21:15.556Z,4.20
2022-08-19T12:23:43.089Z,3.03
2022-08-19T12:26:11.350Z,6.70
2022-08-19T12:28:38.745Z,3.40
2022-08-19T12:31:06.370Z,3.40
2022-08-19T12:33:33.227Z,3.70
2022-08-19T12:36:06.376Z,3.00
2022-08-19T12:38:35.481Z,4.83
2022-08-19T12:41:04.391Z,3.17
2022-08-19T12:43:31.365Z,3.23
2022-08-19T12:46:00.489Z,3.07
2022-08-19T12:48:33.368Z,2.90
2022-08-19T12:51:16.363Z,3.67
2022-08-19T12:53:43.668Z,3.73
2022-08-19T12:56:15.675Z,3.07
2022-08-19T12:58:49.047Z,3.10
2022-08-19T13:01:18.405Z,3.60
2022-08-19T13:03:49.360Z,3.30
2022-08-19T13:06:19.528Z,3.73
2022-08-19T13:08:47.383Z,3.10
2022-08-19T13:11:20.638Z,3.23
2022-08-19T13:13:49.122Z,4.10
2022-08-19T13:16:16.234Z,3.53
2022-08-19T13:18:52.850Z,3.93
2022-08-19T13:21:21.541Z,4.63
2022-08-19T13:23:50.763Z,4.00
2022-08-19T13:26:21.050Z,5.53
2022-08-19T13:29:09.443Z,3.70
2022-08-19T13:31:55.798Z,3.90
2022-08-19T13:34:35.015Z,3.40
2022-08-19T13:37:06.337Z,5.13
2022-08-19T13:39:38.946Z,15.33
2022-08-19T13:42:10.383Z,3.57
2022-08-19T13:44:37.391Z,5.10
2022-08-19T13:47:07.793Z,4.13
2022-08-19T13:49:36.853Z,3.37
2022-08-19T13:52:05.617Z,5.30
2022-08-19T13:54:32.248Z,3.70
2022-08-19T13:56:58.908Z,3.90
2022-08-19T13:59:28.569Z,3.63
2022-08-19T14:01:59.343Z,3.50
2022-08-19T14:04:26.152Z,3.50
2022-08-19T14:06:52.853Z,4.77
2022-08-19T14:09:22.327Z,3.30
2022-08-19T14:11:52.340Z,3.57
2022-08-19T14:14:22.435Z,3.50
2022-08-19T14:16:55.709Z,3.30
2022-08-19T14:19:25.094Z,5.00
2022-08-19T14:22:04.733Z,4.50
2022-08-19T14:24:31.579Z,5.27
2022-08-19T14:27:07.159Z,4.10
2022-08-19T14:29:36.145Z,4.00
2022-08-19T14:32:02.977Z,4.33
2022-08-19T14:34:29.845Z,4.87
2022-08-19T14:36:56.640Z,3.50
2022-08-19T14:39:26.494Z,3.90
2022-08-19T14:41:53.145Z,3.77
2022-08-19T14:44:20.604Z,5.47
2022-08-19T14:46:56.522Z,4.00
2022-08-19T14:49:26.791Z,4.00
2022-08-19T14:52:05.105Z,4.93
2022-08-19T14:54:31.938Z,7.53
2022-08-19T14:56:58.629Z,5.90
2022-08-19T14:59:25.667Z,7.77
2022-08-19T15:02:33.964Z,6.33
2022-08-19T15:04:58.266Z,4.30
2022-08-19T15:07:28.998Z,4.07
2022-08-19T15:09:56.562Z,4.53
2022-08-19T15:12:25.772Z,4.00
2022-08-19T15:14:58.127Z,3.90
2022-08-19T15:17:32.396Z,3.90
2022-08-19T15:20:14.958Z,4.93
2022-08-19T15:22:45.619Z,4.23
2022-08-19T15:25:17.302Z,6.60
2022-08-19T15:27:44.442Z,4.70
2022-08-19T15:30:12.302Z,5.30
2022-08-19T15:32:49.034Z,4.13
2022-08-19T15:35:16.237Z,5.90
2022-08-19T15:37:43.381Z,5.33
2022-08-19T15:40:15.797Z,3.50
2022-08-19T15:42:46.798Z,4.23
2022-08-19T15:45:15.711Z,3.57
2022-08-19T15:47:51.229Z,4.23
2022-08-19T15:50:21.418Z,4.10
2022-08-19T15:52:56.948Z,4.40
2022-08-19T15:55:36.090Z,4.67
2022-08-19T15:58:28.425Z,5.77
2022-08-19T16:01:40.818Z,4.10
2022-08-19T16:04:29.189Z,3.90
2022-08-19T16:07:00.269Z,4.30
2022-08-19T16:09:30.183Z,4.70
2022-08-19T16:12:06.479Z,4.10
2022-08-19T16:14:35.361Z,5.07
2022-08-19T16:17:14.789Z,3.53
2022-08-19T16:19:41.557Z,3.80
2022-08-19T16:22:10.003Z,4.97
2022-08-19T16:24:40.165Z,3.10
2022-08-19T16:27:07.186Z,3.20
2022-08-19T16:29:39.500Z,3.70
2022-08-19T16:32:16.327Z,4.03
2022-08-19T16:34:43.622Z,4.10
2022-08-19T16:37:10.448Z,4.87
2022-08-19T16:39:45.179Z,3.60
2022-08-19T16:42:12.824Z,3.93
2022-08-19T16:44:48.828Z,4.60
2022-08-19T16:47:17.908Z,3.50
2022-08-19T16:49:52.454Z,4.40
2022-08-19T16:52:21.652Z,4.13
2022-08-19T16:54:48.594Z,4.70
2022-08-19T16:57:16.586Z,4.60
2022-08-19T16:59:49.267Z,3.83
2022-08-19T17:02:21.939Z,5.40
2022-08-19T17:04:55.745Z,4.30
2022-08-19T17:07:26.203Z,7.27
2022-08-19T17:09:52.932Z,3.60
2022-08-19T17:12:19.677Z,5.17
2022-08-19T17:14:46.362Z,4.47
2022-08-19T17:17:15.763Z,4.10
2022-08-19T17:19:44.625Z,3.93
2022-08-19T17:22:13.016Z,4.00
2022-08-19T17:24:40.648Z,3.87
2022-08-19T17:27:09.984Z,4.30
2022-08-19T17:29:36.737Z,3.90
2022-08-19T17:32:06.595Z,4.50
2022-08-19T17:34:33.678Z,3.90
2022-08-19T17:37:07.945Z,5.10
2022-08-19T17:39:37.806Z,8.27
2022-08-19T17:42:08.146Z,7.77
2022-08-19T17:44:36.721Z,6.00
2022-08-19T17:47:04.562Z,4.33
2022-08-19T17:49:33.315Z,4.00
2022-08-19T17:52:00.575Z,4.00
2022-08-19T17:54:33.587Z,4.93
2022-08-19T17:57:01.476Z,12.20
2022-08-19T17:59:29.942Z,4.40
2022-08-19T18:02:03.302Z,7.37
2022-08-19T18:04:30.672Z,4.00
2022-08-19T18:06:57.523Z,3.30
2022-08-19T18:09:27.398Z,4.90
2022-08-19T18:11:59.177Z,4.03
2022-08-19T18:14:34.097Z,3.50
2022-08-19T18:19:56.124Z,3.77
2022-08-19T18:22:26.606Z,4.10
2022-08-19T18:24:57.353Z,3.90
2022-08-19T18:27:26.257Z,5.40
2022-08-19T18:29:54.563Z,7.00
2022-08-19T18:32:38.151Z,5.00
2022-08-19T18:35:16.263Z,3.93
2022-08-19T18:37:44.261Z,4.23
2022-08-19T18:40:38.074Z,4.30
2022-08-19T18:43:11.512Z,4.27
2022-08-19T18:45:58.153Z,4.20
2022-08-19T18:48:43.636Z,7.63
2022-08-19T18:51:10.530Z,5.47
2022-08-19T18:53:39.377Z,5.03
2022-08-19T18:56:08.055Z,4.67
2022-08-19T18:58:36.555Z,4.40
2022-08-19T19:01:32.246Z,6.73
2022-08-19T19:04:01.828Z,7.83
2022-08-19T19:06:39.370Z,4.87
2022-08-19T19:09:26.801Z,5.07
2022-08-19T19:12:04.118Z,5.23
2022-08-19T19:14:50.571Z,6.43
2022-08-19T19:17:17.753Z,7.73
2022-08-19T19:19:44.851Z,5.90
2022-08-19T19:22:27.535Z,9.57
2022-08-19T19:24:55.254Z,6.00
2022-08-19T19:27:22.167Z,7.57
2022-08-19T19:29:52.751Z,7.23
2022-08-19T19:32:40.346Z,7.40
2022-08-19T19:35:30.231Z,7.97
2022-08-19T19:38:02.712Z,8.67
2022-08-19T19:40:29.668Z,7.47
2022-08-19T19:42:56.383Z,6.10
2022-08-19T19:45:23.354Z,7.47
2022-08-19T19:47:50.195Z,7.80
2022-08-19T19:50:28.233Z,8.30
2022-08-19T19:52:55.265Z,6.80
2022-08-19T19:55:22.442Z,9.60
2022-08-19T19:57:56.356Z,8.30
2022-08-19T20:00:23.416Z,8.67
2022-08-19T20:02:51.066Z,7.00
2022-08-19T20:05:26.924Z,7.87
2022-08-19T20:08:13.667Z,6.97
2022-08-19T20:10:42.183Z,8.33
2022-08-19T20:13:09.751Z,9.33
2022-08-19T20:15:42.580Z,7.60
2022-08-19T20:18:10.756Z,7.73
2022-08-19T20:20:37.459Z,7.40
2022-08-19T20:23:12.002Z,7.10
2022-08-19T20:25:39.308Z,8.17
2022-08-19T20:28:05.968Z,8.50
2022-08-19T20:30:33.300Z,7.70
2022-08-19T20:33:09.561Z,12.87
2022-08-19T20:35:37.241Z,6.77
2022-08-19T20:38:11.942Z,7.30
2022-08-19T20:40:39.281Z,9.10
2022-08-19T20:43:13.300Z,7.10
2022-08-19T20:45:40.539Z,7.50
2022-08-19T20:48:08.686Z,7.97
2022-08-19T20:50:36.313Z,6.90
2022-08-19T20:53:14.490Z,8.30
2022-08-19T20:55:44.507Z,8.53
2022-08-19T20:58:12.640Z,10.27
2022-08-19T21:00:40.791Z,13.67
2022-08-19T21:03:07.451Z,6.80
2022-08-19T21:05:34.170Z,7.20
2022-08-19T21:08:01.058Z,7.33
2022-08-19T21:10:27.799Z,7.50
2022-08-19T21:13:00.416Z,7.63
2022-08-19T21:15:27.181Z,7.63
2022-08-19T21:17:53.971Z,6.80
2022-08-19T21:20:20.819Z,8.00
2022-08-19T21:22:47.600Z,8.77
2022-08-19T21:25:18.550Z,7.60
2022-08-19T21:27:45.346Z,7.33
2022-08-19T21:30:15.168Z,10.37
2022-08-19T21:32:41.907Z,11.90
2022-08-19T21:35:18.096Z,8.53
2022-08-19T21:37:45.100Z,8.37
2022-08-19T21:40:12.131Z,9.80
2022-08-19T21:42:42.442Z,9.47
2022-08-19T21:45:18.598Z,8.60
2022-08-19T21:47:52.800Z,8.33
2022-08-19T21:50:19.609Z,8.50
2022-08-19T21:52:46.914Z,9.53
2022-08-19T21:55:14.284Z,10.80
2022-08-19T21:57:43.445Z,8.60
2022-08-19T22:00:16.403Z,10.30
2022-08-19T22:02:43.599Z,10.60
2022-08-19T22:05:13.894Z,9.87
2022-08-19T22:07:43.004Z,12.60
2022-08-19T22:10:13.015Z,12.57
2022-08-19T22:12:46.036Z,12.73
2022-08-19T22:15:21.223Z,11.40
2022-08-19T22:17:48.059Z,15.10
2022-08-19T22:20:18.036Z,15.40
2022-08-19T22:22:51.088Z,15.17
2022-08-19T22:25:31.821Z,16.17
2022-08-19T22:28:01.515Z,14.73
2022-08-19T22:30:33.089Z,13.83
2022-08-19T22:33:05.569Z,16.80
2022-08-19T22:35:34.512Z,14.47
2022-08-19T22:38:12.644Z,14.50
2022-08-19T22:40:47.095Z,18.60
2022-08-19T22:43:18.210Z,14.87
2022-08-19T22:45:45.815Z,14.33
2022-08-19T22:48:14.524Z,16.23
2022-08-19T22:51:05.075Z,19.37
2022-08-19T22:53:36.694Z,17.10
2022-08-19T22:56:15.476Z,21.63
2022-08-19T22:58:42.580Z,18.67
2022-08-19T23:01:11.791Z,16.17
2022-08-19T23:03:56.298Z,15.00
2022-08-19T23:06:33.061Z,17.03
2022-08-19T23:09:01.148Z,18.40
2022-08-19T23:11:27.872Z,19.00
2022-08-19T23:13:54.548Z,22.17
2022-08-19T23:16:21.195Z,20.20
2022-08-19T23:18:48.250Z,20.50
2022-08-19T23:21:15.054Z,20.93
2022-08-19T23:23:41.655Z,22.07
2022-08-19T23:26:11.738Z,20.53
2022-08-19T23:29:00.474Z,22.73
2022-08-19T23:31:27.164Z,19.00
2022-08-19T23:33:53.833Z,23.50
2022-08-19T23:36:21.049Z,21.67
2022-08-19T23:38:49.140Z,23.67
2022-08-19T23:41:17.321Z,25.50
2022-08-19T23:43:44.491Z,20.77
2022-08-19T23:46:13.483Z,23.80
2022-08-19T23:48:40.452Z,23.03
2022-08-19T23:51:09.933Z,22.70
2022-08-19T23:53:40.872Z,23.07
2022-08-19T23:56:09.461Z,25.13
2022-08-19T23:58:37.193Z,24.43
